West Memphis, AR (72303)

2:37 AM CDT on April 02, 2015 (GMT -0500)
West Memphis Municipal | | Change Station
CLOSE
Current Station
Airport
Location: West Memphis,
Elevation: 213 ft
Nearby Weather Stations

Elev 213 ft 35.14 °N, 90.23 °W | Updated 44 minutes ago

Overcast
Overcast
69 °F
Feels Like 69 °F
N
5
Wind Variable Wind from West

Today
High -- | Low -- °F
--% Chance of Precip.
Yesterday
High -- | Low -- °F
Precip. -- in
6:46 AM 7:22 PM
Waxing Gibbous, 96% visible
Pressure 29.92 in
Visibility 10.0 miles
Clouds Scattered Clouds 3600 ft
Mostly Cloudy 4700 ft
Overcast 6000 ft
Dew Point 61 °F
Humidity 75%
Rainfall 0.00 in
Snow Depth Not available.
UV 0 out of 12
Pollen 10.60 out of 12
Air Quality Not available.
Flu Activity Not available.
METAR KAWM 020653Z AUTO 28004KT 10SM SCT036 BKN047 OVC060 21/16 A2993 RMK AO2 LTG DSNT SE RAB14E27 SLP131 P0000 T02060161

More Conditions Fewer Conditions

Pressure 29.92 in
Visibility 10.0 miles
Clouds Scattered Clouds 3600 ft
Mostly Cloudy 4700 ft
Overcast 6000 ft
Dew Point 61 °F
Humidity 75%
Rainfall 0.00 in
Snow Depth Not available.
UV 0 out of 12
Pollen 10.60 out of 12
Air Quality Not available.
Flu Activity Not available.
METAR KAWM 020653Z AUTO 28004KT 10SM SCT036 BKN047 OVC060 21/16 A2993 RMK AO2 LTG DSNT SE RAB14E27 SLP131 P0000 T02060161

More Conditions Fewer Conditions

10-Day Weather Forecast

Almanac

Astronomy

Apr. 02, 2015 Rise Set
Actual Time
Civil Twilight
Nautical Twilight
Astronomical Twilight
Moon
Length of Visible Light
Length of Day
Tomorrow will be .
, % of the Moon is Illuminated

Today's Extremes

State Highs State Lows

Community

WunderPhotos

Upload Photos

1,810,204 photos uploaded!

WunderBlogs® & News

Nearby

Air Quality

  Air Quality AQ Index Pollutant
Not available.

Snow Depth

Station Depth Elevation

Earthquake Activity

City Distance Mag. Time & Date
Minimum magnitude displayed is 2.5.

Coastal Water Temperatures

Place Temperature

Stations

Nearby Weather Stations

Station Location Temp. Windchill Dew Point Humidity Wind Precip. Elev Updated Type